Terminal Aerodrome Forecast
Issued by NWS

Home | Current Version | Previous Version | Text Only | Print | Product List | Glossary On
Versions: 1 2 3 4 5 6 7 8 9 10 11 12 13 14 15 16 17 18 19 20 21 22 23 24
000
FTUS44 KOUN 032320
TAFPNC
TAF
KPNC 032320Z 0400/0424 04004KT 4SM -DZ BR SCT007 OVC012
     FM040300 06004KT 2SM -DZ BR OVC007
     FM040900 03004KT 1SM -DZ BR OVC004
     FM041400 34005KT 4SM BR BKN007 OVC015
     FM041600 34007KT P6SM SCT010 BKN030
     FM041800 33008KT P6SM SCT030=

USA.gov is the U.S. government's official web portal to all federal, state and local government web resources and services.